sensor_id;sensor_type;location;lat;lon;timestamp;P1;durP1;ratioP1;P2;durP2;ratioP2
58512;SDS011;44302;47.914;10.642;2023-03-31T07:22:19;12.87;;;8.93;;
58512;SDS011;44302;47.914;10.642;2023-03-31T07:30:03;16.43;;;8.17;;
58512;SDS011;44302;47.914;10.642;2023-03-31T07:54:25;13.00;;;8.03;;
58512;SDS011;44302;47.914;10.642;2023-03-31T07:57:56;9.20;;;6.87;;
58512;SDS011;44302;47.914;10.642;2023-03-31T08:00:21;12.30;;;5.70;;
58512;SDS011;44302;47.914;10.642;2023-03-31T08:02:47;8.83;;;6.07;;
58512;SDS011;44302;47.914;10.642;2023-03-31T08:06:23;8.17;;;6.20;;
58512;SDS011;44302;47.914;10.642;2023-03-31T08:09:58;8.80;;;5.50;;
58512;SDS011;44302;47.914;10.642;2023-03-31T08:12:23;9.83;;;4.87;;
58512;SDS011;44302;47.914;10.642;2023-03-31T08:14:49;7.90;;;4.37;;
58512;SDS011;44302;47.914;10.642;2023-03-31T08:17:15;8.47;;;4.47;;
58512;SDS011;44302;47.914;10.642;2023-03-31T08:35:11;8.17;;;3.37;;
58512;SDS011;44302;47.914;10.642;2023-03-31T08:39:27;6.80;;;4.13;;
58512;SDS011;44302;47.914;10.642;2023-03-31T08:41:56;6.63;;;3.60;;
58512;SDS011;44302;47.914;10.642;2023-03-31T08:44:28;7.40;;;3.30;;
58512;SDS011;44302;47.914;10.642;2023-03-31T08:47:19;4.87;;;2.77;;
58512;SDS011;44302;47.914;10.642;2023-03-31T08:49:48;8.63;;;3.40;;
58512;SDS011;44302;47.914;10.642;2023-03-31T08:52:20;6.43;;;3.47;;
58512;SDS011;44302;47.914;10.642;2023-03-31T08:54:50;4.20;;;2.63;;
58512;SDS011;44302;47.914;10.642;2023-03-31T08:57:23;6.30;;;3.07;;
58512;SDS011;44302;47.914;10.642;2023-03-31T08:59:52;7.70;;;3.03;;
58512;SDS011;44302;47.914;10.642;2023-03-31T09:05:45;7.23;;;3.30;;
58512;SDS011;44302;47.914;10.642;2023-03-31T09:11:00;3.57;;;2.23;;
58512;SDS011;44302;47.914;10.642;2023-03-31T09:16:23;4.33;;;2.10;;
58512;SDS011;44302;47.914;10.642;2023-03-31T09:18:54;3.43;;;2.00;;
58512;SDS011;44302;47.914;10.642;2023-03-31T09:26:47;4.80;;;2.70;;
58512;SDS011;44302;47.914;10.642;2023-03-31T09:32:20;4.23;;;1.83;;
58512;SDS011;44302;47.914;10.642;2023-03-31T09:34:50;3.37;;;2.00;;
58512;SDS011;44302;47.914;10.642;2023-03-31T09:37:17;4.07;;;2.30;;
58512;SDS011;44302;47.914;10.642;2023-03-31T09:39:43;3.43;;;1.93;;
58512;SDS011;44302;47.914;10.642;2023-03-31T09:42:12;4.03;;;2.10;;
58512;SDS011;44302;47.914;10.642;2023-03-31T09:50:03;2.83;;;1.90;;
58512;SDS011;44302;47.914;10.642;2023-03-31T09:52:32;3.53;;;2.30;;
58512;SDS011;44302;47.914;10.642;2023-03-31T09:55:02;4.73;;;2.30;;
58512;SDS011;44302;47.914;10.642;2023-03-31T09:57:36;5.67;;;2.47;;
58512;SDS011;44302;47.914;10.642;2023-03-31T10:00:19;3.67;;;2.37;;
58512;SDS011;44302;47.914;10.642;2023-03-31T10:08:21;5.03;;;2.63;;
58512;SDS011;44302;47.914;10.642;2023-03-31T10:10:52;4.50;;;2.73;;
58512;SDS011;44302;47.914;10.642;2023-03-31T10:13:26;3.93;;;2.67;;
58512;SDS011;44302;47.914;10.642;2023-03-31T10:16:03;5.73;;;2.33;;
58512;SDS011;44302;47.914;10.642;2023-03-31T10:18:36;5.73;;;2.57;;
58512;SDS011;44302;47.914;10.642;2023-03-31T10:21:05;4.33;;;2.97;;
58512;SDS011;44302;47.914;10.642;2023-03-31T10:23:34;4.87;;;2.97;;
58512;SDS011;44302;47.914;10.642;2023-03-31T10:26:00;4.20;;;2.33;;
58512;SDS011;44302;47.914;10.642;2023-03-31T10:28:30;4.23;;;2.97;;
58512;SDS011;44302;47.914;10.642;2023-03-31T10:30:58;4.37;;;2.70;;
58512;SDS011;44302;47.914;10.642;2023-03-31T10:33:25;5.53;;;2.60;;
58512;SDS011;44302;47.914;10.642;2023-03-31T10:42:10;6.10;;;3.10;;
58512;SDS011;44302;47.914;10.642;2023-03-31T11:01:00;4.67;;;3.00;;
58512;SDS011;44302;47.914;10.642;2023-03-31T11:09:45;6.30;;;3.00;;
58512;SDS011;44302;47.914;10.642;2023-03-31T11:12:23;5.93;;;3.10;;
58512;SDS011;44302;47.914;10.642;2023-03-31T11:14:59;4.57;;;2.90;;
58512;SDS011;44302;47.914;10.642;2023-03-31T11:20:26;6.93;;;2.50;;
58512;SDS011;44302;47.914;10.642;2023-03-31T11:42:26;3.60;;;1.70;;
58512;SDS011;44302;47.914;10.642;2023-03-31T11:45:00;4.87;;;1.63;;
58512;SDS011;44302;47.914;10.642;2023-03-31T11:47:36;1.93;;;1.57;;
58512;SDS011;44302;47.914;10.642;2023-03-31T11:50:09;2.70;;;1.63;;
58512;SDS011;44302;47.914;10.642;2023-03-31T11:52:42;3.90;;;1.60;;
58512;SDS011;44302;47.914;10.642;2023-03-31T11:55:16;3.37;;;1.30;;
58512;SDS011;44302;47.914;10.642;2023-03-31T11:57:47;3.83;;;1.70;;
58512;SDS011;44302;47.914;10.642;2023-03-31T12:00:16;2.83;;;1.50;;
58512;SDS011;44302;47.914;10.642;2023-03-31T12:03:01;5.17;;;1.87;;
58512;SDS011;44302;47.914;10.642;2023-03-31T12:05:45;3.43;;;1.47;;
58512;SDS011;44302;47.914;10.642;2023-03-31T12:08:29;2.27;;;1.33;;
58512;SDS011;44302;47.914;10.642;2023-03-31T12:11:04;5.50;;;3.03;;
58512;SDS011;44302;47.914;10.642;2023-03-31T12:13:34;4.77;;;1.60;;
58512;SDS011;44302;47.914;10.642;2023-03-31T12:16:08;1.63;;;1.20;;
58512;SDS011;44302;47.914;10.642;2023-03-31T12:19:06;2.23;;;1.20;;
58512;SDS011;44302;47.914;10.642;2023-03-31T13:06:50;4.00;;;1.83;;
58512;SDS011;44302;47.914;10.642;2023-03-31T13:11:43;2.60;;;1.37;;
58512;SDS011;44302;47.914;10.642;2023-03-31T13:14:13;1.60;;;1.40;;
58512;SDS011;44302;47.914;10.642;2023-03-31T13:16:46;2.80;;;1.57;;
58512;SDS011;44302;47.914;10.642;2023-03-31T13:19:26;1.67;;;1.57;;
58512;SDS011;44302;47.914;10.642;2023-03-31T13:21:58;3.73;;;1.33;;
58512;SDS011;44302;47.914;10.642;2023-03-31T13:24:26;3.07;;;1.20;;
58512;SDS011;44302;47.914;10.642;2023-03-31T13:26:54;4.90;;;1.60;;
58512;SDS011;44302;47.914;10.642;2023-03-31T13:29:23;4.27;;;1.43;;
58512;SDS011;44302;47.914;10.642;2023-03-31T13:37:44;2.90;;;1.60;;
58512;SDS011;44302;47.914;10.642;2023-03-31T13:43:04;1.50;;;1.00;;
58512;SDS011;44302;47.914;10.642;2023-03-31T13:46:11;2.77;;;1.43;;
58512;SDS011;44302;47.914;10.642;2023-03-31T13:51:53;3.37;;;1.40;;
58512;SDS011;44302;47.914;10.642;2023-03-31T14:15:19;3.53;;;1.20;;
58512;SDS011;44302;47.914;10.642;2023-03-31T14:17:45;2.77;;;1.53;;
58512;SDS011;44302;47.914;10.642;2023-03-31T14:23:06;1.17;;;1.07;;
58512;SDS011;44302;47.914;10.642;2023-03-31T14:26:06;2.73;;;0.83;;
58512;SDS011;44302;47.914;10.642;2023-03-31T14:29:00;1.17;;;0.90;;
58512;SDS011;44302;47.914;10.642;2023-03-31T14:37:11;2.43;;;1.10;;
58512;SDS011;44302;47.914;10.642;2023-03-31T14:39:43;2.10;;;1.10;;
58512;SDS011;44302;47.914;10.642;2023-03-31T14:42:15;2.67;;;1.10;;
58512;SDS011;44302;47.914;10.642;2023-03-31T14:45:20;4.17;;;1.20;;
58512;SDS011;44302;47.914;10.642;2023-03-31T14:48:02;2.07;;;1.00;;
58512;SDS011;44302;47.914;10.642;2023-03-31T14:50:34;1.93;;;0.80;;
58512;SDS011;44302;47.914;10.642;2023-03-31T14:53:00;2.23;;;1.23;;
58512;SDS011;44302;47.914;10.642;2023-03-31T14:55:28;1.60;;;1.20;;
58512;SDS011;44302;47.914;10.642;2023-03-31T14:57:58;1.97;;;0.90;;
58512;SDS011;44302;47.914;10.642;2023-03-31T15:00:31;1.40;;;0.90;;
58512;SDS011;44302;47.914;10.642;2023-03-31T15:02:59;2.87;;;1.00;;
58512;SDS011;44302;47.914;10.642;2023-03-31T15:05:30;3.67;;;1.40;;
58512;SDS011;44302;47.914;10.642;2023-03-31T15:08:02;3.53;;;1.80;;
58512;SDS011;44302;47.914;10.642;2023-03-31T15:10:32;2.70;;;1.50;;
58512;SDS011;44302;47.914;10.642;2023-03-31T15:13:15;2.07;;;1.23;;
58512;SDS011;44302;47.914;10.642;2023-03-31T15:15:48;4.10;;;1.33;;
58512;SDS011;44302;47.914;10.642;2023-03-31T15:18:14;1.73;;;1.43;;
58512;SDS011;44302;47.914;10.642;2023-03-31T15:20:41;2.00;;;1.37;;
58512;SDS011;44302;47.914;10.642;2023-03-31T15:23:18;2.40;;;1.60;;
58512;SDS011;44302;47.914;10.642;2023-03-31T15:25:56;4.57;;;1.70;;
58512;SDS011;44302;47.914;10.642;2023-03-31T15:28:23;1.63;;;1.53;;
58512;SDS011;44302;47.914;10.642;2023-03-31T15:30:52;3.63;;;1.57;;
58512;SDS011;44302;47.914;10.642;2023-03-31T15:33:21;1.87;;;1.37;;
58512;SDS011;44302;47.914;10.642;2023-03-31T15:35:55;3.80;;;1.60;;
58512;SDS011;44302;47.914;10.642;2023-03-31T15:38:21;1.67;;;1.53;;
58512;SDS011;44302;47.914;10.642;2023-03-31T15:40:52;2.17;;;1.20;;
58512;SDS011;44302;47.914;10.642;2023-03-31T15:43:27;3.10;;;1.60;;
58512;SDS011;44302;47.914;10.642;2023-03-31T15:48:50;3.43;;;1.33;;
58512;SDS011;44302;47.914;10.642;2023-03-31T15:51:19;3.90;;;1.60;;
58512;SDS011;44302;47.914;10.642;2023-03-31T15:53:49;2.83;;;1.40;;
58512;SDS011;44302;47.914;10.642;2023-03-31T15:59:03;3.20;;;1.40;;
58512;SDS011;44302;47.914;10.642;2023-03-31T16:01:31;2.70;;;1.80;;
58512;SDS011;44302;47.914;10.642;2023-03-31T16:04:00;3.00;;;1.50;;
58512;SDS011;44302;47.914;10.642;2023-03-31T16:09:12;1.53;;;1.20;;
58512;SDS011;44302;47.914;10.642;2023-03-31T16:12:01;3.80;;;1.27;;
58512;SDS011;44302;47.914;10.642;2023-03-31T16:14:35;3.03;;;1.20;;
58512;SDS011;44302;47.914;10.642;2023-03-31T16:17:08;1.70;;;1.00;;
58512;SDS011;44302;47.914;10.642;2023-03-31T16:19:40;10.10;;;6.67;;
58512;SDS011;44302;47.914;10.642;2023-03-31T16:22:12;3.80;;;3.03;;
58512;SDS011;44302;47.914;10.642;2023-03-31T16:24:43;2.70;;;2.10;;
